createdAt,value
2018-03-29T00:00:00.201Z,94984.52
2018-03-29T00:02:27.754Z,94980.00
2018-03-29T00:04:55.288Z,94982.55
2018-03-29T00:07:22.816Z,94984.79
2018-03-29T00:09:50.365Z,94976.32
2018-03-29T00:12:17.886Z,94981.43
2018-03-29T00:14:45.444Z,94964.64
2018-03-29T00:17:12.972Z,94966.03
2018-03-29T00:19:40.496Z,94955.09
2018-03-29T00:22:08.012Z,94956.04
2018-03-29T00:24:35.764Z,94959.17
2018-03-29T00:27:03.318Z,94963.52
2018-03-29T00:29:30.841Z,94965.86
2018-03-29T00:31:58.403Z,94961.02
2018-03-29T00:34:25.919Z,94964.62
2018-03-29T00:36:53.444Z,94965.95
2018-03-29T00:39:20.960Z,94961.11
2018-03-29T00:41:48.479Z,94960.31
2018-03-29T00:44:16.014Z,94957.34
2018-03-29T00:46:44.408Z,94942.77
2018-03-29T00:49:11.941Z,94939.30
2018-03-29T00:51:39.461Z,94950.78
2018-03-29T00:54:06.979Z,94954.44
2018-03-29T00:56:34.647Z,94953.25
2018-03-29T00:59:02.163Z,94954.97
2018-03-29T01:01:29.702Z,94949.09
2018-03-29T01:03:57.448Z,94940.51
2018-03-29T01:06:24.987Z,94953.84
2018-03-29T01:08:52.505Z,94951.41
2018-03-29T01:11:20.036Z,94939.95
2018-03-29T01:13:47.578Z,94951.86
2018-03-29T01:16:15.095Z,94948.03
2018-03-29T01:18:42.891Z,94941.73
2018-03-29T01:21:10.759Z,94932.94
2018-03-29T01:23:38.287Z,94919.26
2018-03-29T01:26:05.833Z,94917.73
2018-03-29T01:28:33.359Z,94915.66
2018-03-29T01:31:00.922Z,94918.80
2018-03-29T01:33:28.453Z,94919.23
2018-03-29T01:35:55.987Z,94919.64
2018-03-29T01:38:23.506Z,94923.68
2018-03-29T01:40:51.026Z,94927.73
2018-03-29T01:43:18.567Z,94929.28
2018-03-29T01:45:46.083Z,94928.94
2018-03-29T01:48:13.603Z,94926.05
2018-03-29T01:50:41.115Z,94928.09
2018-03-29T01:53:08.634Z,94927.73
2018-03-29T01:55:36.175Z,94914.37
2018-03-29T01:58:03.727Z,94934.88
2018-03-29T02:00:31.257Z,94924.22
2018-03-29T02:02:58.779Z,94933.77
2018-03-29T02:05:26.300Z,94933.11
2018-03-29T02:07:53.826Z,94932.87
2018-03-29T02:10:21.345Z,94940.27
2018-03-29T02:12:48.891Z,94934.92
2018-03-29T02:15:16.407Z,94938.62
2018-03-29T02:17:43.922Z,94930.08
2018-03-29T02:20:11.438Z,94934.38
2018-03-29T02:22:38.960Z,94932.02
2018-03-29T02:25:06.519Z,94936.53
2018-03-29T02:27:34.051Z,94942.80
2018-03-29T02:30:01.568Z,94935.83
2018-03-29T02:32:29.097Z,94931.56
2018-03-29T02:34:56.618Z,94926.36
2018-03-29T02:37:24.155Z,94943.15
2018-03-29T02:39:51.679Z,94948.57
2018-03-29T02:42:19.195Z,94954.98
2018-03-29T02:44:46.720Z,94951.94
2018-03-29T02:47:14.243Z,94953.12
2018-03-29T02:49:41.827Z,94943.23
2018-03-29T02:52:09.358Z,94949.09
2018-03-29T02:54:36.881Z,94948.88
2018-03-29T02:57:04.410Z,94952.61
2018-03-29T02:59:31.931Z,94960.97
2018-03-29T03:01:59.466Z,94960.45
2018-03-29T03:04:26.984Z,94964.96
2018-03-29T03:06:54.504Z,94962.25
2018-03-29T03:09:22.037Z,94976.05
2018-03-29T03:11:49.556Z,94969.39
2018-03-29T03:14:17.103Z,94965.30
2018-03-29T03:16:44.629Z,94964.69
2018-03-29T03:19:12.151Z,94952.61
2018-03-29T03:21:39.667Z,94951.23
2018-03-29T03:24:07.184Z,94939.73
2018-03-29T03:26:34.726Z,94941.94
2018-03-29T03:29:02.246Z,94941.95
2018-03-29T03:31:29.790Z,94938.86
2018-03-29T03:33:57.308Z,94931.67
2018-03-29T03:36:24.844Z,94936.83
2018-03-29T03:38:52.423Z,94942.48
2018-03-29T03:41:19.943Z,94941.75
2018-03-29T03:43:47.476Z,94941.98
2018-03-29T03:46:14.992Z,94940.31
2018-03-29T03:48:42.526Z,94948.41
2018-03-29T03:51:10.080Z,94940.20
2018-03-29T03:53:37.606Z,94938.53
2018-03-29T03:56:05.131Z,94954.44
2018-03-29T03:58:32.647Z,94950.03
2018-03-29T04:01:00.177Z,94949.61
2018-03-29T04:03:27.699Z,94948.32
2018-03-29T04:05:55.251Z,94947.83
2018-03-29T04:08:22.767Z,94945.94
2018-03-29T04:10:50.283Z,94949.30
2018-03-29T04:13:17.810Z,94955.54
2018-03-29T04:15:45.327Z,94954.61
2018-03-29T04:18:12.878Z,94960.30
2018-03-29T04:20:40.483Z,94955.31
2018-03-29T04:23:07.998Z,94919.87
2018-03-29T04:25:35.515Z,94970.20
2018-03-29T04:28:03.040Z,94973.16
2018-03-29T04:30:30.594Z,94976.21
2018-03-29T04:32:58.143Z,94978.66
2018-03-29T04:35:26.236Z,94978.09
2018-03-29T04:37:53.759Z,94975.63
2018-03-29T04:40:21.319Z,94995.13
2018-03-29T04:42:48.863Z,94989.02
2018-03-29T04:45:16.387Z,94984.09
2018-03-29T04:47:43.918Z,94986.02
2018-03-29T04:50:11.434Z,94988.80
2018-03-29T04:52:38.951Z,94989.95
2018-03-29T04:55:06.516Z,94991.13
2018-03-29T04:57:34.059Z,94990.68
2018-03-29T05:00:01.618Z,94999.55
2018-03-29T05:02:29.164Z,94999.47
2018-03-29T05:04:56.686Z,94995.68
2018-03-29T05:07:24.211Z,95001.70
2018-03-29T05:09:51.735Z,95008.95
2018-03-29T05:12:19.280Z,95008.86
2018-03-29T05:14:46.818Z,95006.83
2018-03-29T05:17:14.338Z,94997.58
2018-03-29T05:19:41.850Z,95007.80
2018-03-29T05:22:09.387Z,95013.70
2018-03-29T05:24:36.906Z,95019.11
2018-03-29T05:27:04.469Z,95025.39
2018-03-29T05:29:31.983Z,95026.83
2018-03-29T05:31:59.527Z,95031.84
2018-03-29T05:34:27.051Z,95031.91
2018-03-29T05:36:54.628Z,95034.84
2018-03-29T05:39:22.151Z,95028.88
2018-03-29T05:41:49.687Z,95020.67
2018-03-29T05:44:17.223Z,95031.20
2018-03-29T05:46:44.747Z,95041.86
2018-03-29T05:49:12.279Z,95047.77
2018-03-29T05:51:39.796Z,95060.25
2018-03-29T05:54:07.355Z,95057.27
2018-03-29T05:56:34.923Z,95048.68
2018-03-29T05:59:02.434Z,95054.41
2018-03-29T06:01:29.988Z,95054.57
2018-03-29T06:03:57.539Z,95057.98
2018-03-29T06:06:25.063Z,95052.58
2018-03-29T06:08:52.578Z,95065.59
2018-03-29T06:11:20.096Z,95061.40
2018-03-29T06:16:47.043Z,95060.14
2018-03-29T06:19:14.588Z,95069.52
2018-03-29T06:21:42.123Z,95062.09
2018-03-29T06:24:09.667Z,95071.36
2018-03-29T06:26:37.194Z,95073.71
2018-03-29T06:29:04.731Z,95045.30
2018-03-29T06:31:32.292Z,95062.05
2018-03-29T06:33:59.825Z,95065.77
2018-03-29T06:36:27.355Z,95065.61
2018-03-29T06:38:55.008Z,95078.78
2018-03-29T06:41:22.524Z,95057.20
2018-03-29T06:43:50.052Z,95068.12
2018-03-29T06:46:17.597Z,95072.55
2018-03-29T06:48:45.127Z,95081.38
2018-03-29T06:51:12.655Z,95074.64
2018-03-29T06:53:40.183Z,95087.19
2018-03-29T06:56:07.718Z,95099.77
2018-03-29T06:58:35.267Z,95081.67
2018-03-29T07:01:02.855Z,95087.52
2018-03-29T07:03:30.366Z,95084.47
2018-03-29T07:05:57.911Z,95092.28
2018-03-29T07:08:25.474Z,95098.22
2018-03-29T07:10:53.020Z,95105.53
2018-03-29T07:13:20.559Z,95103.03
2018-03-29T07:15:48.083Z,95111.97
2018-03-29T07:18:15.640Z,95116.02
2018-03-29T07:20:43.158Z,95119.75
2018-03-29T07:23:10.683Z,95124.55
2018-03-29T07:25:38.251Z,95114.66
2018-03-29T07:28:05.778Z,95126.09
2018-03-29T07:30:33.358Z,95127.36
2018-03-29T07:33:00.888Z,95105.27
2018-03-29T07:35:28.410Z,95127.23
2018-03-29T07:37:55.931Z,95135.33
2018-03-29T07:40:23.486Z,95132.13
2018-03-29T07:42:51.036Z,95131.35
2018-03-29T07:45:18.569Z,95133.48
2018-03-29T07:47:46.099Z,95132.56
2018-03-29T07:50:13.625Z,95145.80
2018-03-29T07:52:41.231Z,95146.84
2018-03-29T07:55:08.763Z,95143.55
2018-03-29T07:57:36.289Z,95153.17
2018-03-29T08:00:05.743Z,95143.19
2018-03-29T08:02:33.269Z,95148.66
2018-03-29T08:05:00.793Z,95048.48
2018-03-29T08:07:28.371Z,95149.21
2018-03-29T08:09:55.906Z,95129.38
2018-03-29T08:12:23.463Z,95146.27
2018-03-29T08:14:50.991Z,95140.06
2018-03-29T08:17:18.519Z,95142.66
2018-03-29T08:19:46.044Z,95137.86
2018-03-29T08:22:13.595Z,95144.59
2018-03-29T08:24:41.135Z,95141.98
2018-03-29T08:27:08.663Z,95126.17
2018-03-29T08:29:36.193Z,95133.61
2018-03-29T08:32:03.722Z,95139.67
2018-03-29T08:34:31.250Z,95139.25
2018-03-29T08:36:58.858Z,95141.16
2018-03-29T08:39:27.245Z,95148.92
2018-03-29T08:41:54.834Z,95142.47
2018-03-29T08:44:22.429Z,95136.05
2018-03-29T08:46:50.957Z,95136.38
2018-03-29T08:49:19.390Z,95133.58
2018-03-29T08:51:47.884Z,95132.70
2018-03-29T08:54:15.650Z,95144.81
2018-03-29T08:56:46.221Z,95134.22
2018-03-29T08:59:16.660Z,95131.20
2018-03-29T09:01:45.084Z,95134.37
2018-03-29T09:04:12.809Z,95135.52
2018-03-29T09:06:41.797Z,95130.58
2018-03-29T09:09:10.808Z,95130.89
2018-03-29T09:11:39.291Z,95118.20
2018-03-29T09:14:08.390Z,95124.80
2018-03-29T09:16:35.916Z,95135.43
2018-03-29T09:19:03.514Z,95133.10
2018-03-29T09:21:31.033Z,95131.65
2018-03-29T09:23:58.554Z,95127.62
2018-03-29T09:26:26.085Z,95127.45
2018-03-29T09:28:53.898Z,95120.70
2018-03-29T09:31:21.461Z,95112.62
2018-03-29T09:33:48.991Z,95119.09
2018-03-29T09:36:16.511Z,95119.61
2018-03-29T09:38:44.030Z,95111.39
2018-03-29T09:41:11.560Z,95099.64
2018-03-29T09:43:39.065Z,95111.02
2018-03-29T09:46:06.647Z,95111.24
2018-03-29T09:48:35.047Z,95117.08
2018-03-29T09:51:02.584Z,95105.11
2018-03-29T09:53:30.116Z,95101.21
2018-03-29T09:55:57.640Z,95102.27
2018-03-29T09:58:25.165Z,95100.90
2018-03-29T10:00:52.735Z,95086.97
2018-03-29T10:03:23.130Z,95097.52
2018-03-29T10:05:50.696Z,95093.87
2018-03-29T10:08:18.259Z,95087.73
2018-03-29T10:10:45.804Z,95083.48
2018-03-29T10:13:13.346Z,95099.17
2018-03-29T10:15:40.875Z,95088.42
2018-03-29T10:18:08.431Z,95087.89
2018-03-29T10:20:36.069Z,95084.49
2018-03-29T10:23:03.603Z,95087.56
2018-03-29T10:25:31.186Z,95073.21
2018-03-29T10:27:58.710Z,95078.31
2018-03-29T10:30:26.233Z,95080.98
2018-03-29T10:32:53.787Z,95068.83
2018-03-29T10:35:21.338Z,95075.59
2018-03-29T10:37:48.856Z,95073.84
2018-03-29T10:40:16.417Z,95066.70
2018-03-29T10:42:43.950Z,95060.38
2018-03-29T10:45:14.332Z,95056.48
2018-03-29T10:47:41.970Z,95060.10
2018-03-29T10:50:09.498Z,95061.92
2018-03-29T10:52:37.031Z,95058.03
2018-03-29T10:55:04.554Z,95015.99
2018-03-29T10:57:32.079Z,95062.36
2018-03-29T10:59:59.607Z,95058.77
2018-03-29T11:02:27.126Z,95033.15
2018-03-29T11:04:54.646Z,95033.05
2018-03-29T11:07:22.180Z,95034.91
2018-03-29T11:09:49.720Z,95045.86
2018-03-29T11:12:17.287Z,95041.02
2018-03-29T11:14:44.818Z,95039.69
2018-03-29T11:17:12.336Z,95040.55
2018-03-29T11:19:39.865Z,95037.69
2018-03-29T11:22:07.407Z,95036.84
2018-03-29T11:24:34.956Z,95033.14
2018-03-29T11:27:02.495Z,95031.66
2018-03-29T11:29:30.034Z,95026.44
2018-03-29T11:31:57.564Z,95028.70
2018-03-29T11:34:25.096Z,95021.16
2018-03-29T11:36:52.608Z,95026.31
2018-03-29T11:39:20.127Z,95017.41
2018-03-29T11:41:47.640Z,95010.94
2018-03-29T11:44:15.166Z,95012.98
2018-03-29T11:46:42.705Z,95007.83
2018-03-29T11:49:10.270Z,95019.24
2018-03-29T11:51:37.793Z,95007.66
2018-03-29T11:54:05.329Z,94997.91
2018-03-29T11:56:32.872Z,94996.36
2018-03-29T11:59:00.384Z,94996.02
2018-03-29T12:01:27.981Z,95000.88
2018-03-29T12:03:55.506Z,94997.81
2018-03-29T12:06:23.018Z,94979.83
2018-03-29T12:08:50.539Z,94983.05
2018-03-29T12:11:18.082Z,94978.42
2018-03-29T12:13:45.628Z,94975.94
2018-03-29T12:16:13.151Z,94970.73
2018-03-29T12:18:40.672Z,94970.44
2018-03-29T12:21:08.195Z,94967.41
2018-03-29T12:23:35.714Z,94966.11
2018-03-29T12:26:03.222Z,94962.59
2018-03-29T12:28:30.734Z,94962.67
2018-03-29T12:30:58.287Z,94942.03
2018-03-29T12:33:25.815Z,94957.18
2018-03-29T12:35:53.360Z,94958.67
2018-03-29T12:38:20.904Z,94947.59
2018-03-29T12:40:48.430Z,94952.16
2018-03-29T12:43:15.947Z,94957.80
2018-03-29T12:45:43.462Z,94939.72
2018-03-29T12:48:11.006Z,94937.84
2018-03-29T12:50:39.308Z,94941.33
2018-03-29T12:53:06.823Z,94937.53
2018-03-29T12:55:42.086Z,94930.84
2018-03-29T12:58:12.474Z,94930.23
2018-03-29T13:00:40.026Z,94924.47
2018-03-29T13:03:07.549Z,94925.28
2018-03-29T13:05:35.079Z,94923.76
2018-03-29T13:08:02.624Z,94925.54
2018-03-29T13:10:30.179Z,94929.45
2018-03-29T13:12:57.730Z,94928.61
2018-03-29T13:15:25.237Z,94928.61
2018-03-29T13:17:52.755Z,94923.95
2018-03-29T13:20:20.286Z,94923.84
2018-03-29T13:22:47.801Z,94921.12
2018-03-29T13:25:15.324Z,94918.20
2018-03-29T13:27:42.852Z,94927.55
2018-03-29T13:30:10.407Z,94919.15
2018-03-29T13:32:37.928Z,94926.16
2018-03-29T13:35:05.477Z,94902.34
2018-03-29T13:37:33.030Z,94916.78
2018-03-29T13:40:00.560Z,94918.36
2018-03-29T13:42:28.102Z,94923.06
2018-03-29T13:44:55.623Z,94912.52
2018-03-29T13:47:23.134Z,94905.44
2018-03-29T13:49:50.643Z,94904.33
2018-03-29T13:52:18.159Z,94901.98
2018-03-29T13:54:45.745Z,94904.31
2018-03-29T13:57:13.271Z,94898.44
2018-03-29T13:59:40.814Z,94899.22
2018-03-29T14:02:08.333Z,94896.69
2018-03-29T14:04:35.867Z,94896.89
2018-03-29T14:07:03.374Z,94895.70
2018-03-29T14:09:30.892Z,94894.16
2018-03-29T14:11:58.439Z,94890.05
2018-03-29T14:14:25.995Z,94897.28
2018-03-29T14:16:53.486Z,94885.00
2018-03-29T14:19:20.998Z,94880.13
2018-03-29T14:21:48.515Z,94877.19
2018-03-29T14:24:16.064Z,94878.89
2018-03-29T14:26:43.590Z,94878.89
2018-03-29T14:29:11.138Z,94881.44
2018-03-29T14:31:38.671Z,94882.66
2018-03-29T14:34:06.193Z,94868.98
2018-03-29T14:36:33.730Z,94881.09
2018-03-29T14:39:01.267Z,94887.53
2018-03-29T14:41:28.883Z,94878.09
2018-03-29T14:43:56.379Z,94876.55
2018-03-29T14:46:23.910Z,94877.16
2018-03-29T14:48:51.426Z,94869.92
2018-03-29T14:51:18.928Z,94878.52
2018-03-29T14:53:46.466Z,94853.98
2018-03-29T14:56:13.973Z,94882.62
2018-03-29T14:58:41.507Z,94884.22
2018-03-29T15:01:09.072Z,94877.97
2018-03-29T15:03:36.573Z,94884.98
2018-03-29T15:06:04.077Z,94886.16
2018-03-29T15:08:32.253Z,94888.88
2018-03-29T15:10:59.766Z,94892.20
2018-03-29T15:13:27.297Z,94894.70
2018-03-29T15:15:54.793Z,94894.28
2018-03-29T15:18:22.348Z,94887.67
2018-03-29T15:20:49.856Z,94901.33
2018-03-29T15:23:17.348Z,94893.31
2018-03-29T15:25:44.880Z,94886.28
2018-03-29T15:28:12.396Z,94887.63
2018-03-29T15:30:39.969Z,94893.31
2018-03-29T15:33:07.454Z,94893.16
2018-03-29T15:35:34.998Z,94889.86
2018-03-29T15:38:02.500Z,94890.06
2018-03-29T15:40:30.009Z,94893.73
2018-03-29T15:42:57.537Z,94882.20
2018-03-29T15:45:25.041Z,94897.83
2018-03-29T15:47:52.538Z,94897.25
2018-03-29T15:50:20.037Z,94901.70
2018-03-29T15:52:47.533Z,94888.80
2018-03-29T15:55:15.072Z,94898.58
2018-03-29T15:57:42.608Z,94911.22
2018-03-29T16:00:10.139Z,94907.06
2018-03-29T16:02:37.646Z,94907.70
2018-03-29T16:05:05.156Z,94907.06
2018-03-29T16:07:32.662Z,94902.76
2018-03-29T16:10:00.180Z,94907.81
2018-03-29T16:12:27.718Z,94910.11
2018-03-29T16:14:55.317Z,94918.45
2018-03-29T16:17:22.820Z,94917.49
2018-03-29T16:19:50.328Z,94913.93
2018-03-29T16:22:17.848Z,94903.13
2018-03-29T16:24:45.392Z,94908.84
2018-03-29T16:27:12.905Z,94903.56
2018-03-29T16:29:40.470Z,94905.11
2018-03-29T16:32:08.038Z,94924.52
2018-03-29T16:34:35.556Z,94920.31
2018-03-29T16:37:03.106Z,94916.22
2018-03-29T16:39:30.621Z,94915.94
2018-03-29T16:41:58.137Z,94924.41
2018-03-29T16:44:25.649Z,94919.40
2018-03-29T16:46:53.161Z,94916.63
2018-03-29T16:49:20.709Z,94924.50
2018-03-29T16:51:48.217Z,94924.67
2018-03-29T16:54:15.776Z,94927.99
2018-03-29T16:56:43.285Z,94939.92
2018-03-29T16:59:10.929Z,94941.05
2018-03-29T17:01:38.481Z,94938.89
2018-03-29T17:04:05.985Z,94940.97
2018-03-29T17:06:33.499Z,94937.11
2018-03-29T17:09:01.038Z,94932.67
2018-03-29T17:11:28.553Z,94933.57
2018-03-29T17:13:56.138Z,94942.38
2018-03-29T17:16:23.654Z,94931.86
2018-03-29T17:18:51.175Z,94945.38
2018-03-29T17:21:18.681Z,94944.74
2018-03-29T17:23:46.262Z,94960.93
2018-03-29T17:26:13.805Z,94969.78
2018-03-29T17:28:41.309Z,94971.88
2018-03-29T17:31:08.952Z,94974.01
2018-03-29T17:33:36.456Z,94971.39
2018-03-29T17:36:03.988Z,94982.12
2018-03-29T17:38:31.529Z,94982.98
2018-03-29T17:40:59.033Z,94986.24
2018-03-29T17:43:26.581Z,94995.76
2018-03-29T17:45:54.113Z,94991.17
2018-03-29T17:48:21.624Z,94995.55
2018-03-29T17:50:49.147Z,95000.51
2018-03-29T17:53:16.653Z,95014.95
2018-03-29T17:55:44.165Z,95021.96
2018-03-29T17:58:11.697Z,95020.52
2018-03-29T18:00:39.212Z,95021.27
2018-03-29T18:03:06.725Z,95020.61
2018-03-29T18:05:34.284Z,95024.75
2018-03-29T18:08:01.805Z,95028.44
2018-03-29T18:10:29.314Z,95038.48
2018-03-29T18:12:56.829Z,95012.67
2018-03-29T18:15:24.358Z,95039.36
2018-03-29T18:17:51.897Z,95035.66
2018-03-29T18:20:19.452Z,95046.84
2018-03-29T18:22:46.961Z,95055.92
2018-03-29T18:25:14.477Z,95050.80
2018-03-29T18:27:41.997Z,95053.66
2018-03-29T18:30:09.544Z,95049.75
2018-03-29T18:32:37.061Z,95064.80
2018-03-29T18:35:04.575Z,95067.67
2018-03-29T18:37:32.140Z,95072.11
2018-03-29T18:39:59.648Z,95074.88
2018-03-29T18:42:27.190Z,95097.48
2018-03-29T18:44:54.702Z,95033.34
2018-03-29T18:47:22.209Z,95086.66
2018-03-29T18:49:49.718Z,95085.89
2018-03-29T18:52:18.206Z,95091.08
2018-03-29T18:54:45.710Z,95084.00
2018-03-29T18:57:13.224Z,95086.78
2018-03-29T18:59:40.805Z,95096.27
2018-03-29T19:02:08.316Z,95103.47
2018-03-29T19:04:35.923Z,95101.52
2018-03-29T19:07:03.436Z,95099.86
2018-03-29T19:09:30.944Z,95102.48
2018-03-29T19:11:58.480Z,95104.47
2018-03-29T19:14:26.060Z,95097.14
2018-03-29T19:16:54.475Z,95103.38
2018-03-29T19:19:22.038Z,95108.71
2018-03-29T19:21:51.852Z,95065.92
2018-03-29T19:24:19.491Z,95120.71
2018-03-29T19:26:46.997Z,95116.58
2018-03-29T19:29:14.508Z,95126.77
2018-03-29T19:31:42.018Z,95127.59
2018-03-29T19:34:09.526Z,95133.08
2018-03-29T19:36:37.490Z,95137.77
2018-03-29T19:39:05.005Z,95131.56
2018-03-29T19:41:33.284Z,95145.08
2018-03-29T19:44:01.025Z,95144.00
2018-03-29T19:48:57.746Z,95142.20
2018-03-29T19:51:25.272Z,95146.22
2018-03-29T19:53:52.846Z,95134.55
2018-03-29T19:56:20.352Z,95151.66
2018-03-29T19:58:47.929Z,95156.09
2018-03-29T20:01:15.510Z,95162.58
2018-03-29T20:03:43.023Z,95167.95
2018-03-29T20:06:10.953Z,95166.81
2018-03-29T20:08:38.460Z,95175.73
2018-03-29T20:11:05.994Z,95172.66
2018-03-29T20:13:33.559Z,95169.37
2018-03-29T20:16:01.083Z,95184.39
2018-03-29T20:18:28.601Z,95182.49
2018-03-29T20:20:56.108Z,95184.95
2018-03-29T20:23:23.612Z,95178.56
2018-03-29T20:25:51.188Z,95171.03
2018-03-29T20:28:18.703Z,95178.13
2018-03-29T20:30:46.273Z,95177.42
2018-03-29T20:33:13.871Z,95169.19
2018-03-29T20:35:41.385Z,95167.13
2018-03-29T20:38:08.893Z,95173.82
2018-03-29T20:40:36.401Z,95175.66
2018-03-29T20:43:04.009Z,95170.23
2018-03-29T20:45:31.787Z,95156.88
2018-03-29T20:47:59.296Z,95169.11
2018-03-29T20:50:26.808Z,95174.19
2018-03-29T20:52:54.338Z,95171.15
2018-03-29T20:55:21.889Z,95171.74
2018-03-29T20:57:49.398Z,95187.77
2018-03-29T21:00:16.962Z,95174.28
2018-03-29T21:02:45.274Z,95183.80
2018-03-29T21:05:12.793Z,95180.60
2018-03-29T21:07:40.304Z,95174.58
2018-03-29T21:10:07.812Z,95178.27
2018-03-29T21:12:35.346Z,95184.05
2018-03-29T21:15:02.852Z,95184.41
2018-03-29T21:17:30.356Z,95192.27
2018-03-29T21:19:57.889Z,95187.31
2018-03-29T21:22:25.393Z,95192.20
2018-03-29T21:24:52.900Z,95195.08
2018-03-29T21:27:20.432Z,95190.73
2018-03-29T21:29:47.940Z,95189.25
2018-03-29T21:32:15.464Z,95201.38
2018-03-29T21:34:42.973Z,95201.56
2018-03-29T21:37:10.472Z,95207.52
2018-03-29T21:39:38.036Z,95219.37
2018-03-29T21:42:05.549Z,95217.55
2018-03-29T21:44:33.117Z,95215.20
2018-03-29T21:47:00.625Z,95221.00
2018-03-29T21:49:28.136Z,95213.30
2018-03-29T21:51:55.900Z,95216.98
2018-03-29T21:54:23.400Z,95214.63
2018-03-29T21:56:51.540Z,95228.45
2018-03-29T21:59:19.054Z,95221.79
2018-03-29T22:01:46.597Z,95227.98
2018-03-29T22:04:14.097Z,95227.08
2018-03-29T22:06:41.598Z,95228.33
2018-03-29T22:09:09.108Z,95233.56
2018-03-29T22:11:36.655Z,95222.33
2018-03-29T22:14:04.190Z,95233.64
2018-03-29T22:16:31.705Z,95233.80
2018-03-29T22:18:59.214Z,95241.95
2018-03-29T22:21:26.734Z,95247.06
2018-03-29T22:23:54.254Z,95247.42
2018-03-29T22:26:21.838Z,95247.53
2018-03-29T22:28:49.309Z,95255.20
2018-03-29T22:31:16.869Z,95250.28
2018-03-29T22:33:44.431Z,95251.44
2018-03-29T22:36:11.946Z,95251.02
2018-03-29T22:38:39.513Z,95242.53
2018-03-29T22:41:07.075Z,95257.17
2018-03-29T22:43:34.634Z,95240.92
2018-03-29T22:46:02.145Z,95253.41
2018-03-29T22:48:29.682Z,95258.12
2018-03-29T22:50:57.185Z,95260.63
2018-03-29T22:53:24.713Z,95259.10
2018-03-29T22:55:52.253Z,95257.83
2018-03-29T22:58:19.757Z,95257.76
2018-03-29T23:00:47.319Z,95262.77
2018-03-29T23:03:14.825Z,95266.23
2018-03-29T23:05:42.321Z,95267.25
2018-03-29T23:08:09.820Z,95271.17
2018-03-29T23:10:37.320Z,95281.45
2018-03-29T23:13:04.886Z,95281.78
2018-03-29T23:15:32.388Z,95286.50
2018-03-29T23:17:59.888Z,95284.13
2018-03-29T23:20:27.388Z,95284.66
2018-03-29T23:22:55.128Z,95296.70
2018-03-29T23:25:22.657Z,95278.78
2018-03-29T23:27:50.156Z,95283.64
2018-03-29T23:30:17.730Z,95289.08
2018-03-29T23:32:45.241Z,95285.14
2018-03-29T23:35:12.752Z,95276.77
2018-03-29T23:37:40.268Z,95295.14
2018-03-29T23:40:07.777Z,95295.12
2018-03-29T23:42:35.345Z,95294.40
2018-03-29T23:45:02.854Z,95296.97
2018-03-29T23:47:30.595Z,95304.68
2018-03-29T23:49:58.141Z,95291.44
2018-03-29T23:52:25.644Z,95307.97
2018-03-29T23:54:53.172Z,95308.29
2018-03-29T23:57:20.694Z,95327.21
2018-03-29T23:59:48.206Z,95308.63
